Time;durP1;ratioP1;P1;durP2;ratioP2;P2;SDS_P1;SDS_P2;PMS_P1;PMS_P2;Temp;Humidity;BMP_temperature;BMP_pressure;BME280_temperature;BME280_humidity;BME280_pressure;Samples;Min_cycle;Max_cycle;Signal;HPM_P1;HPM_P2
2023/03/15 00:00:23;;;;;;;10.48;3.97;;;24.10;99.90;;;;;;5052589;28;20198;-77
2023/03/15 00:02:55;;;;;;;7.28;4.20;;;24.10;99.90;;;;;;5054367;28;20208;-78
2023/03/15 00:05:26;;;;;;;9.73;4.15;;;24.20;99.90;;;;;;5057009;28;20210;-78
2023/03/15 00:07:59;;;;;;;8.55;3.97;;;24.30;99.90;;;;;;5055166;28;20193;-78
2023/03/15 00:10:31;;;;;;;11.60;4.75;;;24.40;99.90;;;;;;5056336;28;20240;-79
2023/03/15 00:13:02;;;;;;;8.40;4.28;;;24.40;99.90;;;;;;5055705;28;20193;-79
2023/03/15 00:15:33;;;;;;;9.85;3.97;;;24.40;99.90;;;;;;5055021;28;20217;-79
2023/03/15 00:18:04;;;;;;;9.55;4.13;;;24.50;99.90;;;;;;5065929;28;20224;-79
2023/03/15 00:20:38;;;;;;;9.77;4.15;;;24.60;99.90;;;;;;5057734;28;20629;-79
2023/03/15 00:23:11;;;;;;;8.93;3.67;;;24.60;99.90;;;;;;5034885;28;20190;-79
2023/03/15 00:25:45;;;;;;;8.73;4.28;;;24.80;99.90;;;;;;5053130;28;20202;-80
2023/03/15 00:28:16;;;;;;;11.27;4.93;;;24.90;99.90;;;;;;5056268;28;20242;-81
2023/03/15 00:30:47;;;;;;;9.00;3.85;;;25.00;99.90;;;;;;5055610;28;20215;-80
2023/03/15 00:33:19;;;;;;;9.07;3.85;;;24.90;99.90;;;;;;5051992;28;20225;-81
2023/03/15 00:35:52;;;;;;;7.25;3.53;;;24.90;99.90;;;;;;5057547;28;20581;-80
2023/03/15 00:38:25;;;;;;;6.80;3.70;;;25.00;99.90;;;;;;5055967;28;20193;-81
2023/03/15 00:40:56;;;;;;;8.02;3.72;;;25.10;99.90;;;;;;5054152;28;20190;-81
2023/03/15 00:43:27;;;;;;;8.25;3.53;;;25.20;99.90;;;;;;5054265;28;20205;-80
2023/03/15 00:45:59;;;;;;;6.97;3.60;;;25.30;99.90;;;;;;5034786;28;20190;-83
2023/03/15 00:48:30;;;;;;;8.23;4.22;;;25.40;99.90;;;;;;5034241;28;20236;-79
2023/03/15 00:51:12;;;;;;;8.77;4.00;;;25.40;99.90;;;;;;5034066;28;20186;-80
2023/03/15 00:53:46;;;;;;;9.27;3.83;;;25.50;99.90;;;;;;5047830;28;20552;-80
2023/03/15 00:56:19;;;;;;;9.20;4.05;;;25.60;99.90;;;;;;5054077;28;20558;-82
2023/03/15 00:58:51;;;;;;;7.70;3.45;;;25.70;99.90;;;;;;5053909;28;20190;-81
2023/03/15 01:01:24;;;;;;;10.18;4.30;;;25.90;99.90;;;;;;5037579;28;20231;-80
2023/03/15 01:03:56;;;;;;;10.27;4.30;;;25.90;99.90;;;;;;5055324;28;20202;-81
2023/03/15 01:06:29;;;;;;;9.40;4.03;;;25.90;99.90;;;;;;5055560;28;20205;-78
2023/03/15 01:09:02;;;;;;;8.82;4.10;;;26.10;99.90;;;;;;5056685;28;20204;-79
2023/03/15 01:11:33;;;;;;;10.40;3.70;;;26.20;99.90;;;;;;5053574;28;20189;-80
2023/03/15 01:14:06;;;;;;;7.63;3.90;;;26.20;99.90;;;;;;5055189;28;20220;-81
2023/03/15 01:16:37;;;;;;;6.78;3.50;;;26.30;99.90;;;;;;5058696;28;20283;-82
2023/03/15 01:19:08;;;;;;;8.80;4.88;;;26.50;99.90;;;;;;5057903;28;20205;-82
2023/03/15 01:21:39;;;;;;;8.10;4.45;;;26.70;99.90;;;;;;5056335;28;20247;-81
2023/03/15 01:24:15;;;;;;;7.57;3.70;;;26.80;99.90;;;;;;5051907;28;20208;-84
2023/03/15 01:26:47;;;;;;;7.38;3.92;;;26.90;99.90;;;;;;5051126;28;20564;-79
2023/03/15 01:29:18;;;;;;;7.63;3.42;;;27.00;99.90;;;;;;5053662;28;20196;-80
2023/03/15 01:31:49;;;;;;;6.45;3.70;;;27.10;99.90;;;;;;5050311;28;20204;-81
2023/03/15 01:34:20;;;;;;;8.70;4.40;;;27.20;99.90;;;;;;5052441;28;20233;-80
2023/03/15 01:36:53;;;;;;;7.60;3.42;;;27.20;99.90;;;;;;5055019;28;20236;-81
2023/03/15 01:39:26;;;;;;;6.55;3.90;;;27.40;99.90;;;;;;5049484;28;20197;-80
2023/03/15 01:41:58;;;;;;;5.28;3.60;;;27.30;99.90;;;;;;5053492;28;20645;-80
2023/03/15 01:44:50;;;;;;;5.95;4.00;;;27.40;99.90;;;;;;5052480;28;20205;-81
2023/03/15 01:47:24;;;;;;;9.65;3.85;;;27.40;99.90;;;;;;5053734;28;20190;-79
2023/03/15 01:50:02;;;;;;;6.70;3.78;;;27.50;99.90;;;;;;5049905;28;20279;-80
2023/03/15 01:52:36;;;;;;;5.93;3.67;;;27.50;99.90;;;;;;5048791;28;20566;-81
2023/03/15 01:55:14;;;;;;;9.30;3.85;;;27.60;99.90;;;;;;5050819;28;20231;-80
2023/03/15 01:57:51;;;;;;;6.00;3.88;;;27.60;99.90;;;;;;5052270;28;20657;-81
2023/03/15 02:00:23;;;;;;;7.65;3.90;;;27.70;99.90;;;;;;5041781;28;20193;-81
2023/03/15 02:02:58;;;;;;;7.70;5.03;;;27.70;99.90;;;;;;5060060;28;20197;-81
2023/03/15 02:05:31;;;;;;;5.80;3.92;;;27.80;99.90;;;;;;5051634;28;20574;-84
2023/03/15 02:08:03;;;;;;;5.55;3.80;;;27.70;99.90;;;;;;5051803;28;20204;-81
2023/03/15 02:10:40;;;;;;;9.43;4.20;;;27.70;99.90;;;;;;5045410;28;20216;-81
2023/03/15 02:13:12;;;;;;;5.50;4.03;;;27.80;99.90;;;;;;5053914;28;20193;-81
2023/03/15 02:15:45;;;;;;;7.30;3.72;;;27.80;99.90;;;;;;5052763;28;20217;-81
2023/03/15 02:18:16;;;;;;;6.18;3.80;;;27.90;99.90;;;;;;5051654;28;20284;-81
2023/03/15 02:20:56;;;;;;;5.80;3.92;;;27.90;99.90;;;;;;5051712;28;20198;-80
2023/03/15 02:23:27;;;;;;;5.50;3.75;;;28.00;99.90;;;;;;5053893;28;20687;-81
2023/03/15 02:26:07;;;;;;;5.85;4.00;;;28.10;99.90;;;;;;5057503;28;20707;-80
2023/03/15 02:28:41;;;;;;;7.70;4.20;;;28.20;99.90;;;;;;5053797;28;20213;-79
2023/03/15 02:31:12;;;;;;;6.72;3.92;;;28.20;99.90;;;;;;5057790;28;20198;-81
2023/03/15 02:33:47;;;;;;;6.38;3.92;;;28.30;99.90;;;;;;5059814;28;20233;-76
2023/03/15 02:36:21;;;;;;;5.90;4.10;;;28.30;99.90;;;;;;5056484;28;20212;-82
2023/03/15 02:38:54;;;;;;;5.63;3.90;;;28.30;99.90;;;;;;5053690;28;20201;-80
2023/03/15 02:41:28;;;;;;;5.10;3.78;;;28.30;99.90;;;;;;5053770;28;20684;-80
2023/03/15 02:44:05;;;;;;;7.70;4.40;;;28.30;99.90;;;;;;5049918;28;20196;-80
2023/03/15 02:46:37;;;;;;;7.05;4.28;;;28.40;99.90;;;;;;5060470;28;20274;-79
2023/03/15 02:49:09;;;;;;;6.25;4.30;;;28.40;99.90;;;;;;5068827;28;20590;-80
2023/03/15 02:51:40;;;;;;;6.43;4.13;;;28.40;99.90;;;;;;5042703;28;20202;-81
2023/03/15 02:54:12;;;;;;;5.35;4.00;;;28.60;99.90;;;;;;5036201;28;20198;-80
2023/03/15 02:56:43;;;;;;;8.23;4.35;;;28.60;99.90;;;;;;5048756;28;20194;-81
2023/03/15 02:59:16;;;;;;;7.35;4.72;;;28.60;99.90;;;;;;5059048;28;20197;-82
2023/03/15 03:01:47;;;;;;;9.35;4.00;;;28.60;99.90;;;;;;5052097;28;20205;-82
2023/03/15 03:04:18;;;;;;;6.43;4.18;;;28.50;99.90;;;;;;5055623;28;20205;-82
2023/03/15 03:06:49;;;;;;;6.00;4.05;;;28.50;99.90;;;;;;5058630;28;20197;-81
2023/03/15 03:09:20;;;;;;;5.75;4.38;;;28.50;99.90;;;;;;5056129;28;20553;-82
2023/03/15 03:11:51;;;;;;;5.97;3.95;;;28.50;99.90;;;;;;5055149;28;20198;-82
2023/03/15 03:14:24;;;;;;;7.15;4.10;;;28.50;99.90;;;;;;5050247;28;20193;-81
2023/03/15 03:16:55;;;;;;;6.43;3.88;;;28.40;99.90;;;;;;5048707;28;20221;-82
2023/03/15 03:19:27;;;;;;;8.35;4.53;;;28.40;99.90;;;;;;5049442;28;20208;-85
2023/03/15 03:21:58;;;;;;;6.30;4.20;;;28.50;99.90;;;;;;5045751;28;20209;-85
2023/03/15 03:24:29;;;;;;;5.45;4.05;;;28.60;99.90;;;;;;5048055;28;20626;-87
2023/03/15 03:27:00;;;;;;;6.13;4.22;;;28.60;99.90;;;;;;5051272;28;20201;-85
2023/03/15 03:29:33;;;;;;;8.90;4.25;;;28.50;99.90;;;;;;5049448;28;20212;-84
2023/03/15 03:32:04;;;;;;;11.18;4.15;;;28.50;99.90;;;;;;5050927;28;20201;-83
2023/03/15 03:34:35;;;;;;;10.48;4.05;;;28.40;99.90;;;;;;5047181;28;20245;-85
2023/03/15 03:37:06;;;;;;;6.63;3.95;;;28.30;99.90;;;;;;5044720;28;20661;-86
2023/03/15 03:39:37;;;;;;;8.48;4.03;;;28.30;99.90;;;;;;5043396;28;20228;-86
2023/03/15 03:42:09;;;;;;;7.53;4.05;;;28.30;99.90;;;;;;5052811;28;20206;-86
2023/03/15 03:44:42;;;;;;;10.52;3.85;;;28.30;99.90;;;;;;5050831;28;20194;-86
2023/03/15 03:47:13;;;;;;;10.90;4.88;;;28.40;99.90;;;;;;5050635;28;20217;-85
2023/03/15 03:49:44;;;;;;;9.85;3.65;;;28.40;99.90;;;;;;5050972;28;20209;-85
2023/03/15 03:52:15;;;;;;;10.38;4.25;;;28.40;99.90;;;;;;5051171;28;20226;-83
2023/03/15 03:54:46;;;;;;;9.70;4.40;;;28.40;99.90;;;;;;5051682;28;20200;-86
2023/03/15 03:57:17;;;;;;;9.15;4.30;;;28.30;99.90;;;;;;5051817;28;20202;-87
2023/03/15 03:59:50;;;;;;;9.50;3.80;;;28.30;99.90;;;;;;5041650;28;20202;-81
2023/03/15 04:02:22;;;;;;;12.48;4.20;;;28.20;99.90;;;;;;5050835;28;20201;-84
2023/03/15 04:04:53;;;;;;;8.68;4.00;;;28.20;99.90;;;;;;5049458;28;20208;-79
2023/03/15 04:07:24;;;;;;;9.15;4.00;;;28.20;99.90;;;;;;5044202;28;20569;-83
2023/03/15 04:09:55;;;;;;;8.77;3.67;;;27.90;99.90;;;;;;5049151;28;20201;-81
2023/03/15 04:12:26;;;;;;;9.65;4.20;;;27.90;99.90;;;;;;5052084;28;20202;-81
2023/03/15 04:14:59;;;;;;;8.90;3.60;;;28.00;99.90;;;;;;5046832;28;20296;-85
2023/03/15 04:17:30;;;;;;;8.20;4.38;;;28.10;99.90;;;;;;5052407;28;20204;-83
2023/03/15 04:20:04;;;;;;;10.57;4.18;;;28.00;99.90;;;;;;5054189;28;20653;-87
2023/03/15 04:22:35;;;;;;;8.70;4.03;;;27.80;99.90;;;;;;5053978;28;20355;-82
2023/03/15 04:25:07;;;;;;;9.80;3.85;;;27.80;99.90;;;;;;5050055;28;20204;-81
2023/03/15 04:27:38;;;;;;;9.32;3.80;;;27.80;99.90;;;;;;5051400;28;20198;-78
2023/03/15 04:30:12;;;;;;;9.10;4.63;;;27.80;99.90;;;;;;5049328;28;20205;-84
2023/03/15 04:32:43;;;;;;;12.05;4.20;;;27.80;99.90;;;;;;5068642;28;20245;-83
2023/03/15 04:35:15;;;;;;;7.53;3.88;;;27.80;99.90;;;;;;5059644;28;20220;-83
2023/03/15 04:37:47;;;;;;;11.15;4.40;;;27.90;99.90;;;;;;5051646;28;20200;-85
2023/03/15 04:40:18;;;;;;;11.52;4.35;;;27.90;99.90;;;;;;5053855;28;20546;-85
2023/03/15 04:42:49;;;;;;;11.25;4.00;;;28.00;99.90;;;;;;5052586;28;20200;-85
2023/03/15 04:45:23;;;;;;;11.57;3.97;;;28.00;99.90;;;;;;5049551;28;20197;-79
2023/03/15 04:47:54;;;;;;;6.80;3.88;;;28.00;99.90;;;;;;5047637;28;20247;-77
2023/03/15 04:50:26;;;;;;;8.40;3.72;;;28.00;99.90;;;;;;5049360;28;20201;-77
2023/03/15 04:52:57;;;;;;;9.82;3.90;;;27.80;99.90;;;;;;5060180;28;20190;-78
2023/03/15 04:55:28;;;;;;;10.05;3.65;;;27.70;99.90;;;;;;5053892;28;20220;-79
2023/03/15 04:57:59;;;;;;;11.88;4.15;;;27.80;99.90;;;;;;5055877;28;20241;-86
2023/03/15 05:00:33;;;;;;;12.15;3.75;;;27.70;99.90;;;;;;5048164;28;20215;-78
2023/03/15 05:03:04;;;;;;;11.60;3.95;;;27.70;99.90;;;;;;5053510;28;20204;-87
2023/03/15 05:05:36;;;;;;;11.15;4.00;;;27.60;99.90;;;;;;5057306;28;20193;-87
2023/03/15 05:08:07;;;;;;;10.38;4.20;;;27.40;99.90;;;;;;5054346;28;20213;-87
2023/03/15 05:10:38;;;;;;;9.88;4.43;;;27.40;99.90;;;;;;5048193;28;20208;-87
2023/03/15 05:13:10;;;;;;;11.48;4.25;;;27.30;99.90;;;;;;5060996;28;20201;-86
2023/03/15 05:15:43;;;;;;;9.50;3.72;;;27.30;99.90;;;;;;5053547;28;20220;-85
2023/03/15 05:18:14;;;;;;;9.23;4.13;;;27.20;99.90;;;;;;5051367;28;20664;-84
2023/03/15 05:20:45;;;;;;;10.18;3.90;;;27.20;99.90;;;;;;5053944;28;20194;-81
2023/03/15 05:23:16;;;;;;;14.95;4.60;;;27.10;99.90;;;;;;5055358;28;20670;-86
2023/03/15 05:25:53;;;;;;;9.57;4.25;;;27.10;99.90;;;;;;5073568;28;20197;-84
2023/03/15 05:28:24;;;;;;;15.88;4.82;;;27.00;99.90;;;;;;5073226;28;20302;-84
2023/03/15 05:30:57;;;;;;;7.03;3.80;;;26.90;99.90;;;;;;5053618;28;20212;-83
2023/03/15 05:33:29;;;;;;;11.60;4.03;;;26.90;99.90;;;;;;5053618;28;20232;-81
2023/03/15 05:36:00;;;;;;;9.90;4.10;;;26.90;99.90;;;;;;5053354;28;20228;-81
2023/03/15 05:38:31;;;;;;;9.30;4.03;;;26.80;99.90;;;;;;5048325;28;20194;-87
2023/03/15 05:41:02;;;;;;;12.45;4.47;;;26.90;99.90;;;;;;5050867;28;20201;-83
2023/03/15 05:43:33;;;;;;;9.25;4.15;;;26.90;99.90;;;;;;5053223;28;20259;-84
2023/03/15 05:46:07;;;;;;;9.45;4.35;;;26.90;99.90;;;;;;5053307;28;20216;-84
2023/03/15 05:48:38;;;;;;;11.32;4.47;;;26.90;99.90;;;;;;5033466;28;20708;-82
2023/03/15 05:51:09;;;;;;;12.32;4.53;;;26.90;99.90;;;;;;5033774;28;20190;-84
2023/03/15 05:53:40;;;;;;;12.45;4.30;;;26.80;99.90;;;;;;5039068;28;20190;-82
2023/03/15 05:56:11;;;;;;;8.80;4.22;;;26.80;99.90;;;;;;5053269;28;20217;-82
2023/03/15 05:58:42;;;;;;;10.25;4.57;;;26.80;99.90;;;;;;5048215;28;20197;-82
2023/03/15 06:01:15;;;;;;;8.98;4.32;;;26.80;99.90;;;;;;5053139;28;20194;-81
2023/03/15 06:03:46;;;;;;;13.80;4.50;;;26.70;99.90;;;;;;5063555;28;20185;-81
2023/03/15 06:06:17;;;;;;;11.30;4.18;;;26.70;99.90;;;;;;5053261;28;20200;-82
2023/03/15 06:08:48;;;;;;;10.45;4.40;;;26.70;99.90;;;;;;5052927;28;20185;-85
2023/03/15 06:11:19;;;;;;;9.88;4.47;;;26.60;99.90;;;;;;5053234;28;20185;-85
2023/03/15 06:13:50;;;;;;;11.93;4.45;;;26.50;99.90;;;;;;5054334;28;20193;-84
2023/03/15 06:16:23;;;;;;;8.77;4.80;;;26.50;99.90;;;;;;5032946;28;20222;-84
2023/03/15 06:18:54;;;;;;;10.50;4.68;;;26.50;99.90;;;;;;5048255;28;20201;-81
2023/03/15 06:21:26;;;;;;;13.18;5.20;;;26.40;99.90;;;;;;5053040;28;20198;-82
2023/03/15 06:23:57;;;;;;;10.63;4.93;;;26.30;99.90;;;;;;5052971;28;20194;-81
2023/03/15 06:26:28;;;;;;;11.25;4.80;;;26.30;99.90;;;;;;5052921;28;20197;-81
2023/03/15 06:28:59;;;;;;;14.32;5.30;;;26.20;99.90;;;;;;5051785;28;20201;-82
2023/03/15 06:31:32;;;;;;;10.00;4.97;;;26.20;99.90;;;;;;5043394;28;20629;-79
2023/03/15 06:34:03;;;;;;;11.18;4.93;;;26.10;99.90;;;;;;5052525;28;20236;-82
2023/03/15 06:36:35;;;;;;;10.75;4.78;;;26.10;99.90;;;;;;5058481;28;20213;-85
2023/03/15 06:39:06;;;;;;;9.45;4.60;;;26.10;99.90;;;;;;5052222;28;20239;-85
2023/03/15 06:41:37;;;;;;;10.70;5.03;;;26.10;99.90;;;;;;5050308;28;20186;-83
2023/03/15 06:44:09;;;;;;;13.98;5.00;;;26.10;99.90;;;;;;5050835;28;20734;-85
2023/03/15 06:46:42;;;;;;;12.45;5.10;;;26.10;99.90;;;;;;5047428;28;20655;-82
2023/03/15 06:49:13;;;;;;;12.10;4.80;;;25.90;99.90;;;;;;5052440;28;20194;-86
2023/03/15 06:51:44;;;;;;;11.45;4.93;;;25.90;99.90;;;;;;5058248;28;20194;-83
2023/03/15 06:54:15;;;;;;;11.10;4.80;;;25.90;99.90;;;;;;5048828;28;20195;-89
2023/03/15 06:56:46;;;;;;;10.88;4.80;;;25.80;99.90;;;;;;5051366;28;20217;-86
2023/03/15 06:59:17;;;;;;;10.45;4.78;;;25.80;99.90;;;;;;5052867;28;20208;-80
2023/03/15 07:01:50;;;;;;;11.60;4.75;;;25.80;99.90;;;;;;5058193;28;20201;-83
2023/03/15 07:04:21;;;;;;;11.10;5.38;;;25.70;99.90;;;;;;5047515;28;20189;-83
2023/03/15 07:06:52;;;;;;;9.63;4.90;;;25.70;99.90;;;;;;5046653;28;20645;-79
2023/03/15 07:09:23;;;;;;;14.02;4.68;;;25.60;99.90;;;;;;5054248;28;20760;-85
2023/03/15 07:11:54;;;;;;;10.18;5.25;;;25.60;99.90;;;;;;5050387;28;20196;-75
2023/03/15 07:14:25;;;;;;;9.45;4.72;;;25.60;99.90;;;;;;5054792;28;20213;-84
2023/03/15 07:16:59;;;;;;;10.40;4.50;;;25.50;99.90;;;;;;5053427;28;20300;-82
2023/03/15 07:19:30;;;;;;;10.68;5.15;;;25.40;99.90;;;;;;5055569;28;20198;-82
2023/03/15 07:22:01;;;;;;;10.90;4.80;;;25.40;99.90;;;;;;5060538;28;20197;-78
2023/03/15 07:24:32;;;;;;;11.77;5.05;;;25.30;99.90;;;;;;5054473;28;20206;-81
2023/03/15 07:27:03;;;;;;;11.57;5.10;;;25.20;99.90;;;;;;5051895;28;20216;-81
2023/03/15 07:29:34;;;;;;;10.23;4.43;;;25.20;99.90;;;;;;5051199;28;20217;-83
2023/03/15 07:32:08;;;;;;;9.55;4.95;;;25.20;99.90;;;;;;5059520;28;20198;-81
2023/03/15 07:34:39;;;;;;;8.00;4.63;;;25.20;99.90;;;;;;5063587;28;20229;-82
2023/03/15 07:37:10;;;;;;;8.38;4.55;;;25.10;99.90;;;;;;5055655;28;20220;-81
2023/03/15 07:39:41;;;;;;;10.88;4.53;;;25.00;99.90;;;;;;5054941;28;20673;-81
2023/03/15 07:42:12;;;;;;;10.27;4.90;;;25.00;99.90;;;;;;5054017;28;20202;-82
2023/03/15 07:44:43;;;;;;;9.98;4.80;;;24.90;99.90;;;;;;5058829;28;20201;-82
2023/03/15 07:47:16;;;;;;;8.63;4.40;;;24.90;99.90;;;;;;5060599;28;20222;-84
2023/03/15 07:49:47;;;;;;;10.77;5.65;;;24.90;99.90;;;;;;5054463;28;20198;-83
2023/03/15 07:52:19;;;;;;;8.88;4.95;;;24.80;99.90;;;;;;5054292;28;20202;-84
2023/03/15 07:54:50;;;;;;;11.85;5.32;;;24.70;99.90;;;;;;5057646;28;20193;-82
2023/03/15 07:57:21;;;;;;;11.13;5.20;;;24.70;99.90;;;;;;5058850;28;20217;-80
2023/03/15 07:59:52;;;;;;;9.93;4.60;;;24.70;99.90;;;;;;5062744;28;20194;-83
2023/03/15 08:02:25;;;;;;;9.93;4.90;;;24.60;99.90;;;;;;5052229;28;20202;-79
2023/03/15 08:04:57;;;;;;;7.75;4.15;;;24.50;99.90;;;;;;5053473;28;20193;-84
2023/03/15 08:07:28;;;;;;;10.13;4.82;;;24.50;99.90;;;;;;5048800;28;20200;-81
2023/03/15 08:10:00;;;;;;;11.02;5.38;;;24.50;99.90;;;;;;5057390;28;20193;-82
2023/03/15 08:12:32;;;;;;;10.63;5.15;;;24.40;99.90;;;;;;5048494;28;20202;-83
2023/03/15 08:15:03;;;;;;;10.73;5.22;;;24.30;99.90;;;;;;5052840;28;20209;-82
2023/03/15 08:17:36;;;;;;;11.48;4.93;;;24.30;99.90;;;;;;5056685;28;20641;-82
2023/03/15 08:20:10;;;;;;;12.50;5.68;;;24.30;99.90;;;;;;5052755;28;20653;-84
2023/03/15 08:22:43;;;;;;;9.98;5.45;;;24.30;99.90;;;;;;5057769;28;20258;-82
2023/03/15 08:25:16;;;;;;;13.02;5.47;;;24.20;99.90;;;;;;5054595;28;20637;-83
2023/03/15 08:27:47;;;;;;;10.30;5.25;;;24.20;99.90;;;;;;5054221;28;20255;-82
2023/03/15 08:30:19;;;;;;;10.40;5.07;;;24.10;99.90;;;;;;5054186;28;20190;-81
2023/03/15 08:32:53;;;;;;;8.30;5.40;;;24.10;99.90;;;;;;5058248;28;20264;-82
2023/03/15 08:35:25;;;;;;;11.82;5.63;;;24.10;99.90;;;;;;5056911;28;20213;-82
2023/03/15 08:37:56;;;;;;;14.20;5.50;;;24.00;99.90;;;;;;5048508;28;20222;-82
2023/03/15 08:40:27;;;;;;;12.63;5.57;;;24.00;99.90;;;;;;5058771;28;20200;-82
2023/03/15 08:43:01;;;;;;;11.65;5.55;;;24.00;99.90;;;;;;5058631;28;20200;-82
2023/03/15 08:45:32;;;;;;;11.18;5.43;;;23.90;99.90;;;;;;5050872;28;20194;-81
2023/03/15 08:48:05;;;;;;;10.45;5.15;;;23.90;99.90;;;;;;5046235;28;20229;-84
2023/03/15 08:50:36;;;;;;;7.65;5.18;;;23.90;99.90;;;;;;5043947;28;20199;-82
2023/03/15 08:53:07;;;;;;;7.68;4.88;;;23.80;99.90;;;;;;5050044;28;20201;-83
2023/03/15 08:55:40;;;;;;;10.35;5.10;;;23.80;99.90;;;;;;5052717;28;20201;-80
2023/03/15 08:58:11;;;;;;;10.77;5.05;;;23.80;99.90;;;;;;5051124;28;20584;-81
2023/03/15 09:00:42;;;;;;;10.55;5.53;;;23.70;99.90;;;;;;5041373;28;20680;-83
2023/03/15 09:03:15;;;;;;;10.43;5.40;;;23.60;99.90;;;;;;5051762;28;20539;-82
2023/03/15 09:05:47;;;;;;;8.30;5.07;;;23.60;99.90;;;;;;5059268;28;20221;-81
2023/03/15 09:08:20;;;;;;;9.20;5.05;;;23.60;99.90;;;;;;5050753;28;20206;-81
2023/03/15 09:10:54;;;;;;;9.85;5.13;;;23.50;99.90;;;;;;5052450;28;20268;-81
2023/03/15 09:13:26;;;;;;;11.60;5.82;;;23.50;99.90;;;;;;5052376;28;20208;-79
2023/03/15 09:15:58;;;;;;;13.20;5.93;;;23.40;99.90;;;;;;5054423;28;20193;-80
2023/03/15 09:18:31;;;;;;;9.98;5.85;;;23.40;99.90;;;;;;5053523;28;20224;-79
2023/03/15 09:21:02;;;;;;;12.05;5.28;;;23.30;99.90;;;;;;5049954;28;20197;-79
2023/03/15 09:23:33;;;;;;;9.93;5.53;;;23.30;99.90;;;;;;5062683;28;20670;-78
2023/03/15 09:26:04;;;;;;;8.82;5.10;;;23.30;99.90;;;;;;5053832;28;20201;-79
2023/03/15 09:28:35;;;;;;;10.82;5.68;;;23.30;99.90;;;;;;5050993;28;20198;-79
2023/03/15 09:31:08;;;;;;;11.32;5.95;;;23.30;99.90;;;;;;5051792;28;20205;-79
2023/03/15 09:33:41;;;;;;;11.23;6.00;;;23.30;99.90;;;;;;5048412;28;20239;-79
2023/03/15 09:36:12;;;;;;;10.20;5.60;;;23.30;99.90;;;;;;5053764;28;20209;-79
2023/03/15 09:38:46;;;;;;;8.82;5.57;;;23.20;99.90;;;;;;5051801;28;20193;-79
2023/03/15 09:41:29;;;;;;;10.57;5.50;;;23.20;99.90;;;;;;5053496;28;20196;-78
2023/03/15 09:44:16;;;;;;;10.40;5.45;;;23.20;99.90;;;;;;5052272;28;20220;-79
2023/03/15 09:46:56;;;;;;;10.05;5.40;;;23.10;99.90;;;;;;5050122;28;20221;-79
2023/03/15 09:49:41;;;;;;;10.32;5.70;;;23.10;99.90;;;;;;5050013;28;20193;-79
2023/03/15 09:52:25;;;;;;;11.18;6.05;;;23.10;99.90;;;;;;5047403;28;20256;-79
2023/03/15 09:54:59;;;;;;;10.57;5.63;;;23.00;99.90;;;;;;5049642;28;20201;-79
2023/03/15 09:57:42;;;;;;;10.65;5.50;;;23.00;99.90;;;;;;5048751;28;20223;-78
2023/03/15 10:00:19;;;;;;;10.48;5.43;;;23.00;99.90;;;;;;5040854;28;20201;-78
2023/03/15 10:02:59;;;;;;;9.75;5.22;;;23.00;99.90;;;;;;5052119;28;20204;-79
2023/03/15 10:05:42;;;;;;;14.57;6.40;;;22.90;99.90;;;;;;5050862;28;20286;-79
2023/03/15 10:08:14;;;;;;;11.68;5.97;;;22.90;99.90;;;;;;5049728;28;20213;-78
2023/03/15 10:10:53;;;;;;;9.07;5.57;;;22.90;99.90;;;;;;5051914;28;20409;-79
2023/03/15 10:13:54;;;;;;;9.52;5.07;;;22.80;99.90;;;;;;5046783;28;20197;-79
2023/03/15 10:16:41;;;;;;;10.75;5.72;;;22.80;99.90;;;;;;5045571;28;20204;-79
2023/03/15 10:19:27;;;;;;;13.48;6.45;;;22.80;99.90;;;;;;5048520;28;20201;-79
2023/03/15 10:22:03;;;;;;;12.10;6.25;;;22.80;99.90;;;;;;5053691;28;20194;-79
2023/03/15 10:24:41;;;;;;;13.75;6.47;;;22.70;99.90;;;;;;5052788;28;20665;-80
2023/03/15 10:27:21;;;;;;;12.55;6.05;;;22.70;99.90;;;;;;5053160;28;20197;-79
2023/03/15 10:29:54;;;;;;;10.38;5.97;;;22.70;99.90;;;;;;5039484;28;20654;-79
2023/03/15 10:32:28;;;;;;;10.00;5.90;;;22.70;99.90;;;;;;5045047;28;20243;-79
2023/03/15 10:35:00;;;;;;;10.65;6.00;;;22.70;99.90;;;;;;5051728;28;20202;-78
2023/03/15 10:37:33;;;;;;;11.95;5.53;;;22.70;99.90;;;;;;5047515;28;20217;-79
2023/03/15 10:40:06;;;;;;;9.27;5.65;;;22.70;99.90;;;;;;5051076;28;20202;-78
2023/03/15 10:42:38;;;;;;;9.75;5.65;;;22.70;99.90;;;;;;5051854;28;20229;-78
2023/03/15 10:45:21;;;;;;;9.65;5.50;;;22.70;99.90;;;;;;5062130;28;20205;-78
2023/03/15 10:47:53;;;;;;;10.18;5.80;;;22.70;99.90;;;;;;5061307;28;20217;-79
2023/03/15 10:50:29;;;;;;;9.93;5.50;;;22.70;99.90;;;;;;5055829;28;20633;-79
2023/03/15 10:53:10;;;;;;;11.88;5.82;;;22.60;99.90;;;;;;5074187;28;20212;-79
2023/03/15 10:55:46;;;;;;;15.45;7.00;;;22.70;99.90;;;;;;5059502;28;20211;-77
2023/03/15 10:58:29;;;;;;;14.93;6.95;;;22.60;99.90;;;;;;5056299;28;20684;-81
2023/03/15 11:01:07;;;;;;;13.98;6.22;;;22.60;99.90;;;;;;5056320;28;20193;-81
2023/03/15 11:03:39;;;;;;;12.73;6.25;;;22.60;99.90;;;;;;5036499;28;20194;-80
2023/03/15 11:06:23;;;;;;;13.50;6.45;;;22.50;99.90;;;;;;5036442;28;20201;-81
2023/03/15 11:09:09;;;;;;;11.95;6.07;;;22.50;99.90;;;;;;5036386;28;20285;-81
2023/03/15 11:11:55;;;;;;;10.52;5.68;;;22.50;99.90;;;;;;5047730;28;20649;-82
2023/03/15 11:14:27;;;;;;;11.23;6.15;;;22.50;99.90;;;;;;5055421;28;20280;-81
2023/03/15 11:17:00;;;;;;;12.45;6.40;;;22.50;99.90;;;;;;5056033;28;20251;-79
2023/03/15 11:19:34;;;;;;;13.38;6.20;;;22.50;99.90;;;;;;5056444;28;20197;-79
2023/03/15 11:22:05;;;;;;;12.02;5.95;;;22.40;99.90;;;;;;5059334;28;20224;-81
2023/03/15 11:24:38;;;;;;;13.52;6.35;;;22.40;99.90;;;;;;5056243;28;20209;-81
2023/03/15 11:27:15;;;;;;;14.00;6.47;;;22.40;99.90;;;;;;5057029;28;20657;-80
2023/03/15 11:29:51;;;;;;;11.43;5.95;;;22.40;99.90;;;;;;5055192;28;20205;-80
2023/03/15 11:32:24;;;;;;;14.40;6.47;;;22.40;99.90;;;;;;5045298;28;20258;-79
2023/03/15 11:35:05;;;;;;;14.23;7.05;;;22.30;99.90;;;;;;5055669;28;20696;-80
2023/03/15 11:37:45;;;;;;;10.45;5.95;;;22.30;99.90;;;;;;5054916;28;20213;-81
2023/03/15 11:40:23;;;;;;;12.77;6.18;;;22.30;99.90;;;;;;5055390;28;20197;-81
2023/03/15 11:42:59;;;;;;;13.35;6.20;;;22.30;99.90;;;;;;5055377;28;20613;-80
2023/03/15 11:45:35;;;;;;;14.27;7.10;;;22.30;99.90;;;;;;5053938;28;20649;-81
2023/03/15 11:48:13;;;;;;;16.27;6.68;;;22.30;99.90;;;;;;5052760;28;20221;-81
2023/03/15 11:50:44;;;;;;;13.85;6.25;;;22.20;99.90;;;;;;5054363;28;20200;-80
2023/03/15 11:53:17;;;;;;;15.52;6.90;;;22.20;99.90;;;;;;5054105;28;20209;-80
2023/03/15 11:55:54;;;;;;;12.88;6.65;;;22.20;99.90;;;;;;5058657;28;20193;-80
2023/03/15 11:58:34;;;;;;;13.82;6.38;;;22.10;99.90;;;;;;5055379;28;20677;-80
2023/03/15 12:01:05;;;;;;;14.30;7.05;;;22.10;99.90;;;;;;5054308;28;20189;-80
2023/03/15 12:03:40;;;;;;;13.50;6.70;;;22.10;99.90;;;;;;5055246;28;20247;-81
2023/03/15 12:06:38;;;;;;;13.40;6.47;;;22.10;99.90;;;;;;5055290;28;20204;-81
2023/03/15 12:09:47;;;;;;;12.98;6.30;;;22.00;99.90;;;;;;5059909;28;20204;-80
2023/03/15 12:12:46;;;;;;;14.00;6.88;;;22.10;99.90;;;;;;5056857;28;20559;-80
2023/03/15 12:15:44;;;;;;;12.20;7.05;;;22.00;99.90;;;;;;5041390;28;20198;-80
2023/03/15 12:18:23;;;;;;;12.23;6.65;;;22.00;99.90;;;;;;5044182;28;20225;-80
2023/03/15 12:21:06;;;;;;;12.90;6.38;;;22.00;99.90;;;;;;5056812;28;20197;-80
2023/03/15 12:26:38;;;;;;;13.75;6.53;;;22.00;99.90;;;;;;5057127;28;20205;-80
2023/03/15 12:29:20;;;;;;;12.02;6.40;;;22.00;99.90;;;;;;5054939;28;20196;-80
2023/03/15 12:31:59;;;;;;;11.77;6.57;;;22.00;99.90;;;;;;5054763;28;20192;-81
2023/03/15 12:34:38;;;;;;;13.63;7.15;;;22.00;99.90;;;;;;5063392;28;20224;-80
2023/03/15 12:37:14;;;;;;;15.20;6.25;;;21.90;99.90;;;;;;5062273;28;20255;-80
2023/03/15 12:39:48;;;;;;;13.90;6.57;;;21.90;99.90;;;;;;5054480;28;20562;-80
2023/03/15 12:42:56;;;;;;;11.27;6.25;;;21.90;99.90;;;;;;5054690;28;20193;-80
2023/03/15 12:45:47;;;;;;;13.02;6.63;;;21.90;99.90;;;;;;5070423;28;20718;-79
2023/03/15 12:48:29;;;;;;;13.95;7.13;;;21.90;99.90;;;;;;5074407;28;20197;-79
2023/03/15 12:51:06;;;;;;;14.38;6.82;;;21.90;99.90;;;;;;5069780;28;20224;-80
2023/03/15 12:53:51;;;;;;;12.95;7.10;;;21.90;99.90;;;;;;5054334;28;20197;-80
2023/03/15 12:56:53;;;;;;;13.15;6.65;;;21.80;99.90;;;;;;5056459;28;20197;-79
2023/03/15 12:59:33;;;;;;;13.35;6.50;;;21.80;99.90;;;;;;5052644;28;20220;-80
2023/03/15 13:02:24;;;;;;;11.00;6.32;;;21.80;99.90;;;;;;5053748;28;20205;-80
2023/03/15 13:05:03;;;;;;;13.35;6.82;;;21.80;99.90;;;;;;5054468;28;20653;-80
2023/03/15 13:07:45;;;;;;;13.80;6.80;;;21.80;99.90;;;;;;5053359;28;20208;-80
2023/03/15 13:10:39;;;;;;;14.85;6.57;;;21.80;99.90;;;;;;5059605;28;20259;-80
2023/03/15 13:13:31;;;;;;;14.85;6.93;;;21.80;99.90;;;;;;5067219;28;20652;-80
2023/03/15 13:16:19;;;;;;;14.70;6.85;;;21.80;99.90;;;;;;5031160;28;20578;-80
2023/03/15 13:18:59;;;;;;;13.50;6.82;;;21.80;99.90;;;;;;5055054;28;20262;-80